Time;durP1;ratioP1;P1;durP2;ratioP2;P2;SDS_P1;SDS_P2;PMS_P1;PMS_P2;Temp;Humidity;BMP_temperature;BMP_pressure;BME280_temperature;BME280_humidity;BME280_pressure;Samples;Min_cycle;Max_cycle;Signal;HPM_P1;HPM_P2
2022/09/15 00:01:26;;;;;;;3.9;6.9;;;;;;;17.5;86.4;97430;;;;
2022/09/15 00:11:27;;;;;;;4.1;7.9;;;;;;;17.6;86.5;97410;;;;
2022/09/15 00:21:27;;;;;;;4.1;7.9;;;;;;;17.6;86.3;97380;;;;
2022/09/15 00:32:26;;;;;;;4.1;7.9;;;;;;;17.6;86.7;97370;;;;
2022/09/15 00:42:27;;;;;;;4.3;10.1;;;;;;;17.5;87.7;97360;;;;
2022/09/15 00:53:27;;;;;;;4.3;10.1;;;;;;;17.6;87.2;97340;;;;
2022/09/15 01:04:27;;;;;;;4.3;10.1;;;;;;;17.4;87.2;97330;;;;
2022/09/15 01:15:26;;;;;;;5;7;;;;;;;17.7;87;97310;;;;
2022/09/15 01:26:27;;;;;;;5;7;;;;;;;17.7;86.8;97310;;;;
2022/09/15 01:37:27;;;;;;;5;7;;;;;;;17.8;87;97300;;;;
2022/09/15 01:48:26;;;;;;;4.3;6.8;;;;;;;17.8;86.7;97300;;;;
2022/09/15 01:58:27;;;;;;;4.3;6.8;;;;;;;17.8;86.6;97300;;;;
2022/09/15 02:08:27;;;;;;;4.3;6.8;;;;;;;17.8;86.6;97300;;;;
2022/09/15 02:18:33;;;;;;;5;8.9;;;;;;;17.8;86.5;97300;;;;
2022/09/15 02:29:27;;;;;;;5;8.9;;;;;;;17.7;86.2;97280;;;;
2022/09/15 02:39:27;;;;;;;4.8;7;;;;;;;17.6;86.1;97280;;;;
2022/09/15 02:50:27;;;;;;;4.8;7;;;;;;;17.5;86.3;97280;;;;
2022/09/15 03:00:27;;;;;;;4.8;7;;;;;;;17.6;86.5;97270;;;;
2022/09/15 03:10:27;;;;;;;5.7;11.1;;;;;;;17.4;87.2;97270;;;;
2022/09/15 03:21:28;;;;;;;5.7;11.1;;;;;;;17.5;87.6;97260;;;;
2022/09/15 03:32:27;;;;;;;5.7;11.1;;;;;;;17.5;87.8;97260;;;;
2022/09/15 03:42:27;;;;;;;5.3;8.7;;;;;;;17.6;87.4;97250;;;;
2022/09/15 03:52:28;;;;;;;5.3;8.7;;;;;;;17.6;87.6;97250;;;;
2022/09/15 04:03:27;;;;;;;5.3;8.7;;;;;;;17.7;87.1;97250;;;;
2022/09/15 04:14:27;;;;;;;5.4;8.1;;;;;;;17.7;86.9;97240;;;;
2022/09/15 04:25:27;;;;;;;5.4;8.1;;;;;;;17.6;87;97240;;;;
2022/09/15 04:36:27;;;;;;;5.4;8.1;;;;;;;17.7;86.8;97230;;;;
2022/09/15 04:47:27;;;;;;;5.5;8.3;;;;;;;17.7;86.8;97230;;;;
2022/09/15 04:58:27;;;;;;;5.5;8.3;;;;;;;17.9;86.9;97230;;;;
2022/09/15 05:08:27;;;;;;;5.5;8.3;;;;;;;18.1;87;97230;;;;
2022/09/15 05:19:27;;;;;;;4.4;7;;;;;;;18.4;86.7;97220;;;;
2022/09/15 05:29:27;;;;;;;4.4;7;;;;;;;18.5;86.1;97230;;;;
2022/09/15 05:39:27;;;;;;;2.4;3.8;;;;;;;18.5;85.3;97220;;;;
2022/09/15 05:49:28;;;;;;;2.4;3.8;;;;;;;18.7;85;97220;;;;
2022/09/15 06:00:27;;;;;;;2.4;3.8;;;;;;;18.9;84.6;97220;;;;
2022/09/15 06:11:27;;;;;;;2.2;3.9;;;;;;;19.1;83.8;97220;;;;
2022/09/15 06:21:27;;;;;;;2.2;3.9;;;;;;;19.2;82.7;97220;;;;
2022/09/15 06:32:27;;;;;;;2.2;3.9;;;;;;;19.4;82.3;97220;;;;
2022/09/15 06:43:27;;;;;;;1.8;3.4;;;;;;;19.7;82.5;97230;;;;
2022/09/15 06:54:27;;;;;;;1.8;3.4;;;;;;;19.9;82.1;97250;;;;
2022/09/15 07:05:28;;;;;;;1.8;3.4;;;;;;;19.9;81.8;97270;;;;
2022/09/15 07:16:27;;;;;;;2.9;6.8;;;;;;;19.6;80.1;97290;;;;
2022/09/15 07:27:30;;;;;;;2.9;6.8;;;;;;;20;78;97310;;;;
2022/09/15 07:37:27;;;;;;;2.9;6.8;;;;;;;20.2;77.3;97330;;;;
2022/09/15 07:47:27;;;;;;;;;;;;;;;20.4;;;;;;
2022/09/15 07:57:27;;;;;;;1.7;4.5;;;;;;;20.5;76.4;97370;;;;
2022/09/15 08:08:27;;;;;;;1.7;4.5;;;;;;;20.6;76;97390;;;;
2022/09/15 08:19:27;;;;;;;1.9;5.2;;;;;;;19.5;78.1;97450;;;;
2022/09/15 08:29:28;;;;;;;1.9;5.2;;;;;;;18.5;79.6;97500;;;;
2022/09/15 08:40:27;;;;;;;0.9;2;;;;;;;18.4;80;97510;;;;
2022/09/15 08:51:27;;;;;;;0.9;2;;;;;;;18.5;79.6;97520;;;;
2022/09/15 09:02:28;;;;;;;0.9;2;;;;;;;19;77.4;97550;;;;
2022/09/15 09:12:27;;;;;;;1.2;2.4;;;;;;;19.5;77.4;97560;;;;
2022/09/15 09:23:27;;;;;;;1.2;2.4;;;;;;;19.7;75.4;97580;;;;
2022/09/15 09:34:27;;;;;;;1.2;2.4;;;;;;;20.4;73.8;97590;;;;
2022/09/15 09:44:30;;;;;;;1.2;2.7;;;;;;;20.7;72.7;97590;;;;
2022/09/15 09:54:27;;;;;;;1.2;2.7;;;;;;;20.7;70.9;97590;;;;
2022/09/15 10:04:27;;;;;;;1.2;2.7;;;;;;;20.4;72.3;97600;;;;
2022/09/15 10:15:27;;;;;;;1.2;3.1;;;;;;;19.7;75.6;97600;;;;
2022/09/15 10:26:27;;;;;;;1.2;3.1;;;;;;;19.6;77.6;97600;;;;
2022/09/15 10:37:27;;;;;;;1.2;3.1;;;;;;;19.8;76.8;97590;;;;
2022/09/15 10:47:27;;;;;;;2.2;3.9;;;;;;;20.2;76.7;97590;;;;
2022/09/15 10:58:27;;;;;;;2.2;3.9;;;;;;;20.3;73.7;97590;;;;
2022/09/15 11:09:27;;;;;;;2.4;4.2;;;;;;;20.7;73.1;97570;;;;
2022/09/15 11:19:27;;;;;;;2.4;4.2;;;;;;;20.5;73.5;97570;;;;
2022/09/15 11:29:27;;;;;;;2.4;4.2;;;;;;;20.7;71.5;97560;;;;
2022/09/15 11:39:28;;;;;;;2.3;4.5;;;;;;;21;71;97550;;;;
2022/09/15 11:50:27;;;;;;;2.3;4.5;;;;;;;21.6;70.1;97530;;;;
2022/09/15 12:01:27;;;;;;;2.3;4.5;;;;;;;22.1;69.4;97520;;;;
2022/09/15 12:11:27;;;;;;;1.4;2.8;;;;;;;22.3;68.7;97530;;;;
2022/09/15 12:22:27;;;;;;;1.4;2.8;;;;;;;22.5;68.8;97510;;;;
2022/09/15 12:33:27;;;;;;;1.4;2.8;;;;;;;21.7;69;97510;;;;
2022/09/15 12:43:30;;;;;;;1.4;3.1;;;;;;;21.7;69.4;97500;;;;
2022/09/15 12:54:27;;;;;;;1.4;3.1;;;;;;;21.4;70.4;97490;;;;
2022/09/15 13:04:27;;;;;;;1.4;3.1;;;;;;;21.5;70;97490;;;;
2022/09/15 13:14:27;;;;;;;1.3;2.6;;;;;;;21.2;70.7;97490;;;;
2022/09/15 13:25:27;;;;;;;1.3;2.6;;;;;;;21;71.7;97480;;;;
2022/09/15 13:35:27;;;;;;;1.3;2.6;;;;;;;20.8;73;97480;;;;
2022/09/15 13:46:27;;;;;;;1.6;2.9;;;;;;;20.5;74.3;97480;;;;
2022/09/15 13:57:27;;;;;;;1.6;2.9;;;;;;;20.6;75.1;97450;;;;
2022/09/15 14:08:28;;;;;;;1.6;2.9;;;;;;;20.3;76;97460;;;;
2022/09/15 14:19:27;;;;;;;1.6;3.3;;;;;;;20.2;76.4;97440;;;;
2022/09/15 14:29:27;;;;;;;1.6;3.3;;;;;;;20;77.2;97450;;;;
2022/09/15 14:40:27;;;;;;;3;6.2;;;;;;;20;77.9;97430;;;;
2022/09/15 14:50:27;;;;;;;3;6.2;;;;;;;19.8;78;97450;;;;
2022/09/15 15:01:27;;;;;;;3;6.2;;;;;;;19.7;77.9;97450;;;;
2022/09/15 15:11:27;;;;;;;3.3;4.9;;;;;;;19.7;77.9;97440;;;;
2022/09/15 15:22:27;;;;;;;3.3;4.9;;;;;;;19.6;78.1;97430;;;;
2022/09/15 15:32:27;;;;;;;3.3;4.9;;;;;;;19.4;79.5;97420;;;;
2022/09/15 15:43:27;;;;;;;3.9;6.9;;;;;;;19.2;81.3;97420;;;;
2022/09/15 15:54:27;;;;;;;3.9;6.9;;;;;;;19.2;81.8;97420;;;;
2022/09/15 16:05:27;;;;;;;3.9;6.9;;;;;;;19.1;81.4;97410;;;;
2022/09/15 16:15:27;;;;;;;21.3;28.3;;;;;;;19.1;81.5;97430;;;;
2022/09/15 16:25:27;;;;;;;21.3;28.3;;;;;;;18.9;82.4;97430;;;;
2022/09/15 16:36:27;;;;;;;21.3;28.3;;;;;;;18.7;82.9;97450;;;;
2022/09/15 16:46:27;;;;;;;4.6;7.4;;;;;;;18.5;83.5;97460;;;;
2022/09/15 16:57:27;;;;;;;4.6;7.4;;;;;;;18.4;84.1;97470;;;;
2022/09/15 17:08:28;;;;;;;4.6;7.4;;;;;;;18.2;84.9;97470;;;;
2022/09/15 17:19:27;;;;;;;5.2;7.6;;;;;;;18;85.7;97470;;;;
2022/09/15 17:29:27;;;;;;;5.2;7.6;;;;;;;17.9;86;97480;;;;
2022/09/15 17:39:27;;;;;;;5.2;7.6;;;;;;;17.5;85.7;97490;;;;
2022/09/15 17:50:27;;;;;;;;;;;;;;;;;;;;;
2022/09/15 18:00:27;;;;;;;9.9;13.7;;;;;;;16.8;87.2;97510;;;;
2022/09/15 18:11:27;;;;;;;15.3;19.2;;;;;;;16.7;87.5;97530;;;;
2022/09/15 18:21:27;;;;;;;15.3;19.2;;;;;;;16.7;87.4;97550;;;;
2022/09/15 18:32:27;;;;;;;15.3;19.2;;;;;;;16.6;87.5;97550;;;;
2022/09/15 18:42:27;;;;;;;18.4;22;;;;;;;16.3;87.3;97560;;;;
2022/09/15 18:52:27;;;;;;;18.4;22;;;;;;;16;87.6;97560;;;;
2022/09/15 19:03:27;;;;;;;18.4;22;;;;;;;15.9;87.4;97550;;;;
2022/09/15 19:13:27;;;;;;;13.3;18.7;;;;;;;15.8;87.4;97560;;;;
2022/09/15 19:23:27;;;;;;;13.3;18.7;;;;;;;15.8;88.1;97570;;;;
2022/09/15 19:33:27;;;;;;;13.3;18.7;;;;;;;15.7;88.3;97580;;;;
2022/09/15 19:44:27;;;;;;;12.2;16.1;;;;;;;15.6;87.8;97590;;;;
2022/09/15 19:54:27;;;;;;;12.2;16.1;;;;;;;15.8;87.4;97590;;;;
2022/09/15 20:05:27;;;;;;;12.2;16.1;;;;;;;15.7;87.1;97610;;;;
2022/09/15 20:15:28;;;;;;;12.8;17.7;;;;;;;15.5;87.4;97600;;;;
2022/09/15 20:25:27;;;;;;;12.8;17.7;;;;;;;15.5;87.3;97600;;;;
2022/09/15 20:36:27;;;;;;;12.8;17.7;;;;;;;15.6;87;97610;;;;
2022/09/15 20:46:28;;;;;;;11.9;15.3;;;;;;;15.6;86.7;97630;;;;
2022/09/15 20:57:27;;;;;;;11.9;15.3;;;;;;;15.5;86.2;97640;;;;
2022/09/15 21:07:27;;;;;;;11.9;15.3;;;;;;;15.4;86.1;97660;;;;
2022/09/15 21:17:27;;;;;;;12.8;16.2;;;;;;;15.3;85.8;97640;;;;
2022/09/15 21:28:27;;;;;;;12.8;16.2;;;;;;;15.3;86;97660;;;;
2022/09/15 21:38:27;;;;;;;12.8;16.2;;;;;;;15.2;85.7;97670;;;;
2022/09/15 21:49:27;;;;;;;9.1;12.1;;;;;;;15.1;85.4;97680;;;;
2022/09/15 21:59:27;;;;;;;9.1;12.1;;;;;;;15.1;85.3;97700;;;;
2022/09/15 22:10:29;;;;;;;7.6;10.2;;;;;;;15;85.4;97700;;;;
2022/09/15 22:20:27;;;;;;;7.6;10.2;;;;;;;14.7;85.8;97710;;;;
2022/09/15 22:31:27;;;;;;;7.6;10.2;;;;;;;14.6;85.9;97720;;;;
2022/09/15 22:42:27;;;;;;;6.5;10;;;;;;;14.4;85.7;97720;;;;
2022/09/15 22:53:27;;;;;;;6.5;10;;;;;;;14.4;85.5;97730;;;;
2022/09/15 23:03:27;;;;;;;6.5;10;;;;;;;14.3;85.6;97750;;;;
2022/09/15 23:14:27;;;;;;;7;10.1;;;;;;;14.3;85.7;97740;;;;
2022/09/15 23:25:27;;;;;;;7;10.1;;;;;;;14.1;85.5;97740;;;;
2022/09/15 23:36:27;;;;;;;7;10.1;;;;;;;13.9;85.7;97740;;;;
2022/09/15 23:47:27;;;;;;;7.2;10.5;;;;;;;13.7;85.9;97740;;;;
2022/09/15 23:57:27;;;;;;;7.2;10.5;;;;;;;13.6;86.2;97750;;;;
